Time;durP1;ratioP1;P1;durP2;ratioP2;P2;SDS_P1;SDS_P2;PMS_P1;PMS_P2;Temp;Humidity;BMP_temperature;BMP_pressure;BME280_temperature;BME280_humidity;BME280_pressure;Samples;Min_cycle;Max_cycle;Signal;HPM_P1;HPM_P2
2022/12/04 00:03:17;;;;;;;253.80;41.53;;;;;;;-0.53;100.00;98603.75;15303539;19;20011;-61
2022/12/04 00:08:45;;;;;;;296.90;42.45;;;;;;;-0.54;100.00;98602.91;15287578;19;20027;-61
2022/12/04 00:14:10;;;;;;;268.77;42.10;;;;;;;-0.51;100.00;98600.06;15283181;19;20030;-62
2022/12/04 00:19:34;;;;;;;266.23;43.33;;;;;;;-0.53;100.00;98595.81;15279186;19;20019;-60
2022/12/04 00:25:02;;;;;;;321.55;43.50;;;;;;;-0.49;100.00;98594.69;15296830;19;20018;-60
2022/12/04 00:30:27;;;;;;;382.17;40.58;;;;;;;-0.47;100.00;98588.34;15293885;19;20054;-60
2022/12/04 00:35:51;;;;;;;231.40;38.15;;;;;;;-0.37;100.00;98575.47;15300116;19;20015;-60
2022/12/04 00:41:20;;;;;;;337.10;38.67;;;;;;;-0.32;100.00;98573.41;15298187;19;20788;-58
2022/12/04 00:46:45;;;;;;;398.27;37.38;;;;;;;-0.32;100.00;98573.41;15295991;19;20077;-61
2022/12/04 00:52:09;;;;;;;343.02;38.58;;;;;;;-0.34;100.00;98564.69;15290516;19;20019;-61
2022/12/04 00:57:37;;;;;;;437.70;38.58;;;;;;;-0.34;100.00;98559.41;15294981;19;20078;-61
2022/12/04 01:03:08;;;;;;;467.88;39.45;;;;;;;-0.29;100.00;98558.28;15288978;19;20021;-57
2022/12/04 01:08:35;;;;;;;308.40;34.00;;;;;;;-0.22;100.00;98549.03;15295390;19;20028;-61
2022/12/04 01:14:02;;;;;;;526.67;38.38;;;;;;;-0.25;100.00;98546.56;15298565;19;20033;-59
2022/12/04 01:19:26;;;;;;;442.67;39.47;;;;;;;-0.25;100.00;98546.56;15287101;19;20024;-60
2022/12/04 01:24:51;;;;;;;425.20;39.55;;;;;;;-0.25;100.00;98534.19;15288036;19;20010;-59
2022/12/04 01:30:18;;;;;;;484.77;39.92;;;;;;;-0.26;100.00;98544.84;14777754;19;10001085;-58
2022/12/04 01:35:43;;;;;;;557.83;41.03;;;;;;;-0.29;100.00;98540.59;15291204;19;20672;-61
2022/12/04 01:41:08;;;;;;;395.27;38.70;;;;;;;-0.32;100.00;98530.19;15294337;19;20018;-59
2022/12/04 01:46:36;;;;;;;569.97;41.00;;;;;;;-0.29;100.00;98530.00;15293710;19;20018;-61
2022/12/04 01:52:05;;;;;;;436.17;38.90;;;;;;;-0.29;100.00;98534.47;15288348;19;20022;-59
2022/12/04 01:57:31;;;;;;;469.45;41.45;;;;;;;-0.28;100.00;98525.56;15293708;19;20018;-59
2022/12/04 02:03:01;;;;;;;530.15;42.85;;;;;;;-0.32;100.00;98522.25;15280458;19;20029;-62
2022/12/04 02:08:25;;;;;;;429.90;41.90;;;;;;;-0.36;100.00;98526.88;15294038;19;20015;-61
2022/12/04 02:13:58;;;;;;;473.00;40.78;;;;;;;-0.37;100.00;98516.38;15294451;19;20022;-61
2022/12/04 02:19:50;;;;;;;451.63;44.40;;;;;;;-0.37;100.00;98522.50;15281953;19;20017;-59
2022/12/04 02:25:25;;;;;;;499.77;41.60;;;;;;;-0.32;100.00;98514.31;15284234;19;20548;-61
2022/12/04 02:30:54;;;;;;;451.23;41.15;;;;;;;-0.29;100.00;98515.94;15283959;19;20035;-61
2022/12/04 02:36:22;;;;;;;547.63;42.15;;;;;;;-0.33;100.00;98518.75;15289468;19;20074;-62
2022/12/04 02:41:53;;;;;;;587.42;42.90;;;;;;;-0.27;100.00;98517.53;15288437;19;20349;-59
2022/12/04 02:47:24;;;;;;;489.15;41.80;;;;;;;-0.32;100.00;98515.16;15289394;19;20020;-57
2022/12/04 02:52:52;;;;;;;596.00;46.72;;;;;;;-0.33;100.00;98508.16;15285142;19;20477;-60
2022/12/04 02:58:21;;;;;;;519.08;42.78;;;;;;;-0.30;100.00;98515.06;15290975;19;20030;-61
2022/12/04 03:03:49;;;;;;;709.42;45.55;;;;;;;-0.24;100.00;98524.44;15282263;19;20022;-61
2022/12/04 03:09:17;;;;;;;524.88;41.05;;;;;;;-0.27;100.00;98516.66;15292668;19;20033;-58
2022/12/04 03:14:45;;;;;;;457.17;43.63;;;;;;;-0.28;100.00;98514.97;15291768;19;20074;-62
2022/12/04 03:20:16;;;;;;;500.25;43.15;;;;;;;-0.26;100.00;98518.38;15280524;19;20022;-58
2022/12/04 03:25:46;;;;;;;545.88;43.65;;;;;;;-0.31;100.00;98516.00;15284227;19;20388;-61
2022/12/04 03:31:11;;;;;;;538.20;44.20;;;;;;;-0.29;100.00;98502.69;15279763;19;20614;-58
2022/12/04 03:36:44;;;;;;;430.48;42.90;;;;;;;-0.24;100.00;98500.63;15287083;19;20033;-61
2022/12/04 03:42:16;;;;;;;586.42;44.58;;;;;;;-0.20;100.00;98499.50;15280976;19;20090;-58
2022/12/04 03:47:47;;;;;;;379.58;40.45;;;;;;;-0.16;100.00;98503.66;15288760;19;20090;-61
2022/12/04 03:53:20;;;;;;;551.03;43.25;;;;;;;-0.21;100.00;98518.97;15286666;19;20359;-60
2022/12/04 03:58:51;;;;;;;470.92;40.50;;;;;;;-0.15;100.00;98518.59;15297405;19;20345;-61
2022/12/04 04:04:20;;;;;;;451.95;40.63;;;;;;;-0.11;100.00;98525.44;15287234;19;20014;-61
2022/12/04 04:09:45;;;;;;;412.08;38.13;;;;;;;-0.06;100.00;98520.69;15292106;19;20032;-61
2022/12/04 04:26:44;;;;;;;460.65;40.08;;;;;;;-0.02;100.00;98511.63;15298188;19;20085;-57
2022/12/04 04:32:14;;;;;;;632.10;41.78;;;;;;;-0.10;100.00;98510.38;15298221;19;20019;-60
2022/12/04 04:37:46;;;;;;;565.13;44.28;;;;;;;-0.17;100.00;98517.81;15294892;19;20029;-60
2022/12/04 04:43:20;;;;;;;549.95;45.10;;;;;;;-0.25;100.00;98513.00;15292264;19;20090;-61
2022/12/04 04:48:49;;;;;;;528.03;45.95;;;;;;;-0.24;100.00;98511.19;15297251;19;20027;-59
2022/12/04 04:54:16;;;;;;;633.83;48.25;;;;;;;-0.29;100.00;98492.09;15293848;19;20082;-60
2022/12/04 04:59:43;;;;;;;502.45;47.40;;;;;;;-0.30;100.00;98487.75;15289741;19;20022;-61
2022/12/04 05:05:15;;;;;;;582.83;48.95;;;;;;;-0.33;100.00;98487.00;15288578;19;20473;-58
2022/12/04 05:10:39;;;;;;;485.20;47.80;;;;;;;-0.34;100.00;98487.94;15292544;19;20356;-60
2022/12/04 05:16:09;;;;;;;491.25;48.50;;;;;;;-0.36;100.00;98495.09;15293312;19;20407;-61
2022/12/04 05:21:34;;;;;;;475.17;51.92;;;;;;;-0.39;100.00;98497.94;15291157;19;20018;-61
2022/12/04 05:26:58;;;;;;;369.17;49.67;;;;;;;-0.39;100.00;98495.28;15291918;19;20022;-60
2022/12/04 05:32:28;;;;;;;441.98;50.47;;;;;;;-0.39;100.00;98495.28;15292609;19;20022;-60
2022/12/04 05:37:52;;;;;;;412.60;48.58;;;;;;;-0.40;100.00;98485.63;15292097;19;20019;-57
2022/12/04 05:43:17;;;;;;;335.52;50.55;;;;;;;-0.40;100.00;98504.16;15292540;19;20027;-57
2022/12/04 05:48:44;;;;;;;407.67;52.80;;;;;;;-0.39;100.00;98507.66;15290091;19;20098;-59
2022/12/04 05:54:08;;;;;;;435.40;53.83;;;;;;;-0.41;100.00;98499.81;15293005;19;20371;-58
2022/12/04 05:59:33;;;;;;;433.85;53.53;;;;;;;-0.40;100.00;98490.91;15289608;19;20019;-62
2022/12/04 06:05:07;;;;;;;365.55;53.50;;;;;;;-0.38;100.00;98509.38;15291971;19;20078;-60
2022/12/04 06:10:31;;;;;;;464.33;52.40;;;;;;;-0.38;100.00;98512.88;15292488;19;20082;-61
2022/12/04 06:15:56;;;;;;;440.85;54.03;;;;;;;-0.37;100.00;98511.09;15293364;19;20019;-62
2022/12/04 06:21:27;;;;;;;381.17;52.42;;;;;;;-0.36;100.00;98518.94;15295242;19;20032;-57
2022/12/04 06:26:53;;;;;;;384.67;53.22;;;;;;;-0.36;100.00;98518.09;15291027;19;20023;-56
2022/12/04 06:32:37;;;;;;;487.23;56.25;;;;;;;-0.37;100.00;98521.69;15292741;19;20085;-56
2022/12/04 06:38:06;;;;;;;400.52;54.08;;;;;;;-0.36;100.00;98529.50;15288910;19;20025;-60
2022/12/04 06:43:32;;;;;;;418.65;54.97;;;;;;;-0.37;100.00;98530.47;15283128;19;20015;-61
2022/12/04 06:48:57;;;;;;;447.92;54.42;;;;;;;-0.38;100.00;98531.41;15286434;19;20023;-61
2022/12/04 06:54:24;;;;;;;461.38;55.15;;;;;;;-0.37;100.00;98537.56;15289766;19;20085;-61
2022/12/04 06:59:49;;;;;;;469.25;56.38;;;;;;;-0.36;100.00;98548.03;15286604;19;20011;-61
2022/12/04 07:05:20;;;;;;;484.42;55.15;;;;;;;-0.36;100.00;98545.41;15281321;19;20082;-59
2022/12/04 07:10:47;;;;;;;621.00;59.05;;;;;;;-0.35;100.00;98535.66;15289072;19;20759;-59
2022/12/04 07:16:19;;;;;;;524.53;55.95;;;;;;;-0.37;100.00;98548.16;15289560;19;20018;-58
2022/12/04 07:21:44;;;;;;;541.80;55.53;;;;;;;-0.35;100.00;98559.47;15283626;19;20021;-54
2022/12/04 07:27:11;;;;;;;546.25;56.35;;;;;;;-0.38;100.00;98549.94;15285069;19;20014;-60
2022/12/04 07:32:36;;;;;;;477.80;57.40;;;;;;;-0.35;100.00;98567.41;15300052;19;20051;-61
2022/12/04 07:38:01;;;;;;;576.42;58.85;;;;;;;-0.35;100.00;98556.81;15302954;19;20033;-61
2022/12/04 07:43:28;;;;;;;472.52;56.28;;;;;;;-0.33;100.00;98571.72;15295669;19;20092;-60
2022/12/04 07:48:53;;;;;;;598.45;59.72;;;;;;;-0.33;100.00;98573.47;15306143;19;20014;-59
2022/12/04 07:54:19;;;;;;;512.47;56.90;;;;;;;-0.30;100.00;98575.97;15304983;19;20019;-59
2022/12/04 07:59:49;;;;;;;493.80;56.90;;;;;;;-0.25;100.00;98573.03;15300131;19;20014;-57
2022/12/04 08:05:22;;;;;;;627.00;57.47;;;;;;;-0.24;100.00;98574.75;15290402;19;20022;-58
2022/12/04 08:10:46;;;;;;;690.13;62.42;;;;;;;-0.20;100.00;98576.28;15295531;19;20744;-59
2022/12/04 08:16:16;;;;;;;604.95;60.10;;;;;;;-0.18;100.00;98585.00;15300201;19;20023;-58
2022/12/04 08:21:41;;;;;;;542.33;57.05;;;;;;;-0.15;100.00;98579.50;15322098;19;20019;-60
2022/12/04 08:27:05;;;;;;;661.20;56.80;;;;;;;-0.13;100.00;98582.91;15303976;19;20007;-59
2022/12/04 08:32:32;;;;;;;682.67;58.28;;;;;;;-0.10;100.00;98576.56;15298449;19;20093;-58
2022/12/04 08:37:57;;;;;;;481.20;52.85;;;;;;;-0.08;100.00;98572.91;15295639;19;20028;-59
2022/12/04 08:43:22;;;;;;;566.40;54.70;;;;;;;-0.08;100.00;98580.88;15295451;19;20110;-57
2022/12/04 08:48:49;;;;;;;587.58;54.25;;;;;;;-0.03;100.00;98565.53;15296105;19;20086;-59
2022/12/04 08:54:14;;;;;;;556.17;54.33;;;;;;;-0.02;100.00;98569.06;15298175;19;20489;-59
2022/12/04 08:59:41;;;;;;;614.42;51.65;;;;;;;-0.02;100.00;98559.31;15296890;19;20081;-58
2022/12/04 09:05:17;;;;;;;636.65;52.42;;;;;;;-0.04;100.00;98555.88;15291222;19;20018;-59
2022/12/04 09:10:46;;;;;;;597.40;53.30;;;;;;;-0.07;100.00;98550.78;15295247;19;20493;-60
2022/12/04 09:16:14;;;;;;;558.60;56.83;;;;;;;-0.07;100.00;98539.34;15285362;19;20011;-60
2022/12/04 09:21:43;;;;;;;677.05;58.95;;;;;;;-0.07;100.00;98541.97;15296940;19;20828;-59
2022/12/04 09:27:10;;;;;;;569.85;58.10;;;;;;;-0.05;100.00;98533.00;15288677;19;20030;-60
2022/12/04 09:32:34;;;;;;;406.33;61.10;;;;;;;0.07;100.00;98542.00;15287729;19;20475;-59
2022/12/04 09:38:02;;;;;;;566.55;76.85;;;;;;;0.08;100.00;98553.44;15292413;19;20014;-58
2022/12/04 09:43:33;;;;;;;664.33;54.22;;;;;;;0.10;100.00;98557.72;15294841;19;20094;-58
2022/12/04 09:48:59;;;;;;;602.90;56.70;;;;;;;0.04;100.00;98544.84;15292789;19;20006;-57
2022/12/04 09:54:31;;;;;;;871.75;54.30;;;;;;;0.02;100.00;98532.63;15293087;19;20010;-56
2022/12/04 10:00:00;;;;;;;822.88;60.60;;;;;;;-0.01;100.00;98518.63;15294314;19;20018;-58
2022/12/04 10:05:37;;;;;;;557.50;53.70;;;;;;;0.03;100.00;98550.25;15288813;19;20044;-58
2022/12/04 10:11:16;;;;;;;631.83;52.60;;;;;;;0.06;100.00;98537.66;15293526;19;20006;-57
2022/12/04 10:17:09;;;;;;;641.40;51.60;;;;;;;0.12;100.00;98534.63;15294125;19;20039;-60
2022/12/04 10:22:41;;;;;;;606.10;48.53;;;;;;;0.15;100.00;98544.22;15294921;19;20023;-58
2022/12/04 10:28:24;;;;;;;574.88;47.65;;;;;;;0.16;100.00;98545.91;15289453;19;20078;-59
2022/12/04 10:33:53;;;;;;;536.78;48.10;;;;;;;0.14;100.00;98526.59;15291309;19;20013;-57
2022/12/04 10:39:23;;;;;;;621.78;49.88;;;;;;;0.20;100.00;98515.63;15290147;19;20526;-57
2022/12/04 10:44:51;;;;;;;491.13;46.37;;;;;;;0.23;100.00;98530.50;15289945;19;20236;-57
2022/12/04 10:50:18;;;;;;;492.85;45.22;;;;;;;0.27;100.00;98540.81;15282036;19;20276;-58
2022/12/04 10:55:43;;;;;;;553.75;47.45;;;;;;;0.25;100.00;98537.41;15284706;19;20010;-58
2022/12/04 11:01:13;;;;;;;476.88;47.15;;;;;;;0.27;100.00;98543.47;15277871;19;20025;-60
2022/12/04 11:06:39;;;;;;;542.83;48.20;;;;;;;0.33;100.00;98541.38;15278018;19;20438;-60
2022/12/04 11:12:09;;;;;;;598.53;48.08;;;;;;;0.32;100.00;98529.06;15283702;19;20099;-59
2022/12/04 11:17:37;;;;;;;600.13;48.42;;;;;;;0.34;100.00;98521.88;15284444;19;20019;-58
2022/12/04 11:23:02;;;;;;;517.45;46.58;;;;;;;0.35;100.00;98510.34;15278725;19;20010;-57
2022/12/04 11:28:30;;;;;;;557.80;52.40;;;;;;;0.33;100.00;98478.63;15281903;19;20113;-60
2022/12/04 11:34:05;;;;;;;530.15;49.40;;;;;;;0.28;100.00;98476.28;15280612;19;20531;-60
2022/12/04 11:39:39;;;;;;;610.20;50.50;;;;;;;0.31;100.00;98480.53;15275424;19;20011;-60
2022/12/04 11:45:23;;;;;;;529.53;48.85;;;;;;;0.30;100.00;98486.78;15270595;19;20014;-59
2022/12/04 11:50:58;;;;;;;685.22;52.80;;;;;;;0.27;100.00;98486.94;15276326;19;20042;-60
2022/12/04 11:56:28;;;;;;;706.42;54.33;;;;;;;0.23;100.00;98483.66;15279023;19;20366;-58
2022/12/04 12:01:58;;;;;;;727.67;55.78;;;;;;;0.18;100.00;98485.72;15278273;19;20023;-58
2022/12/04 12:07:47;;;;;;;726.33;59.28;;;;;;;0.17;100.00;98484.03;15271535;19;20018;-58
2022/12/04 12:13:31;;;;;;;631.35;58.33;;;;;;;0.17;100.00;98468.13;15281846;19;20017;-57
2022/12/04 12:19:12;;;;;;;725.50;60.03;;;;;;;0.18;100.00;98459.22;15288023;19;20034;-58
2022/12/04 12:24:51;;;;;;;760.92;61.10;;;;;;;0.17;100.00;98441.66;15296478;19;20077;-58
2022/12/04 12:30:24;;;;;;;785.22;59.10;;;;;;;0.19;100.00;98445.03;15292701;19;20042;-58
2022/12/04 12:35:56;;;;;;;727.33;58.63;;;;;;;0.19;100.00;98430.94;15288665;19;20014;-60
2022/12/04 12:41:28;;;;;;;699.35;60.50;;;;;;;0.16;100.00;98410.81;15294763;19;20018;-57
2022/12/04 12:46:55;;;;;;;625.45;59.85;;;;;;;0.17;100.00;98408.97;15288419;19;20028;-57
2022/12/04 12:52:27;;;;;;;723.60;62.53;;;;;;;0.15;100.00;98406.44;15293383;19;20026;-56
2022/12/04 12:58:02;;;;;;;762.13;60.78;;;;;;;0.17;100.00;98398.38;15290420;19;20022;-60
2022/12/04 13:03:36;;;;;;;679.58;58.55;;;;;;;0.11;100.00;98394.31;15292062;19;20015;-58
2022/12/04 13:09:08;;;;;;;751.33;66.22;;;;;;;0.10;100.00;98393.50;15283418;19;21374;-57
2022/12/04 13:14:35;;;;;;;591.80;56.85;;;;;;;0.03;100.00;98391.31;15291293;19;20030;-59
2022/12/04 13:20:10;;;;;;;830.08;69.13;;;;;;;0.02;100.00;98368.41;15287316;19;20073;-58
2022/12/04 13:25:57;;;;;;;731.80;64.97;;;;;;;-0.01;100.00;98383.56;15287395;19;20018;-58
2022/12/04 13:31:33;;;;;;;649.92;65.60;;;;;;;-0.01;100.00;98372.13;15286424;19;20014;-57
2022/12/04 13:37:09;;;;;;;578.38;65.95;;;;;;;0.03;100.00;98401.91;15289822;19;20911;-57
2022/12/04 13:42:34;;;;;;;666.65;65.00;;;;;;;-0.01;100.00;98399.44;15286294;19;20023;-57
2022/12/04 13:48:08;;;;;;;579.22;62.47;;;;;;;-0.01;100.00;98402.09;15284444;19;20128;-58
2022/12/04 13:53:36;;;;;;;680.47;68.18;;;;;;;0.01;100.00;98394.03;15291410;19;20028;-59
2022/12/04 13:59:08;;;;;;;669.90;64.00;;;;;;;0.00;100.00;98379.13;15286497;19;20010;-59
2022/12/04 14:04:43;;;;;;;762.22;65.28;;;;;;;-0.04;100.00;98374.94;15288439;19;20340;-58
2022/12/04 14:10:12;;;;;;;690.80;66.60;;;;;;;-0.04;100.00;98375.78;15283981;19;20018;-60
2022/12/04 14:15:38;;;;;;;681.38;64.47;;;;;;;-0.05;100.00;98395.28;15278202;19;20534;-57
2022/12/04 14:21:10;;;;;;;990.10;76.72;;;;;;;-0.05;100.00;98397.91;15283507;19;20467;-60
2022/12/04 14:26:35;;;;;;;836.90;71.72;;;;;;;-0.06;100.00;98406.81;15281628;19;20015;-59
2022/12/04 14:32:25;;;;;;;910.30;77.90;;;;;;;-0.09;100.00;98414.97;15284139;19;20015;-55
2022/12/04 14:37:57;;;;;;;794.03;74.97;;;;;;;-0.07;100.00;98417.50;15283329;19;20614;-60
2022/12/04 14:43:26;;;;;;;841.42;76.20;;;;;;;-0.11;100.00;98406.25;15285574;19;20020;-57
2022/12/04 14:48:59;;;;;;;862.55;82.55;;;;;;;-0.11;100.00;98395.66;15272363;19;20017;-59
2022/12/04 14:54:35;;;;;;;1017.97;84.18;;;;;;;-0.15;100.00;98386.19;15284356;19;20093;-59
2022/12/04 15:00:00;;;;;;;1114.68;92.20;;;;;;;-0.18;100.00;98383.75;15282165;19;20015;-57
2022/12/04 15:05:28;;;;;;;813.25;78.50;;;;;;;-0.18;100.00;98391.69;15280454;19;20025;-58
2022/12/04 15:16:32;;;;;;;983.72;85.00;;;;;;;-0.21;100.00;98386.59;15280559;19;20078;-58
2022/12/04 15:21:58;;;;;;;1012.50;83.35;;;;;;;-0.22;100.00;98393.66;15283603;19;20022;-60
2022/12/04 15:27:34;;;;;;;1246.13;95.80;;;;;;;-0.22;100.00;98382.25;15280618;19;20038;-58
2022/12/04 15:32:59;;;;;;;766.17;80.60;;;;;;;-0.23;100.00;98373.41;15281857;19;20478;-58
2022/12/04 15:38:25;;;;;;;1187.10;100.22;;;;;;;-0.23;100.00;98370.78;15276834;19;20077;-58
2022/12/04 15:43:52;;;;;;;914.97;82.30;;;;;;;-0.24;100.00;98368.22;15277262;19;20014;-59
2022/12/04 15:49:26;;;;;;;752.15;83.47;;;;;;;-0.23;100.00;98362.84;15276639;19;20018;-57
2022/12/04 15:54:56;;;;;;;1237.13;92.82;;;;;;;-0.21;100.00;98378.66;15299336;19;20013;-59
2022/12/04 16:00:33;;;;;;;1007.95;88.95;;;;;;;-0.20;100.00;98375.88;15295369;19;20382;-59
2022/12/04 16:06:16;;;;;;;1066.82;90.07;;;;;;;-0.20;100.00;98375.06;15292234;19;20542;-59
2022/12/04 16:11:44;;;;;;;882.47;82.68;;;;;;;-0.18;100.00;98376.66;15297388;19;20110;-58
2022/12/04 16:17:15;;;;;;;675.13;81.28;;;;;;;-0.17;100.00;98375.72;15294914;19;20011;-59
2022/12/04 16:22:40;;;;;;;857.20;83.25;;;;;;;-0.19;100.00;98376.75;15294972;19;20025;-60
2022/12/04 16:28:05;;;;;;;1179.38;93.72;;;;;;;-0.19;100.00;98382.06;15293918;19;20035;-60
2022/12/04 16:33:33;;;;;;;1339.40;102.22;;;;;;;-0.21;100.00;98379.47;15298210;19;20471;-60
2022/12/04 16:38:58;;;;;;;903.90;84.78;;;;;;;-0.18;100.00;98373.16;15291540;19;20014;-61
2022/12/04 16:44:24;;;;;;;979.65;88.60;;;;;;;-0.17;100.00;98375.72;15297373;19;20341;-61
2022/12/04 16:49:53;;;;;;;813.55;84.55;;;;;;;-0.15;100.00;98380.91;15292885;19;20027;-61
2022/12/04 16:55:26;;;;;;;845.45;85.57;;;;;;;-0.14;100.00;98384.41;15291846;19;20565;-60
2022/12/04 17:00:54;;;;;;;916.15;87.53;;;;;;;-0.14;100.00;98379.13;15322450;19;20014;-61
2022/12/04 17:06:21;;;;;;;870.42;84.57;;;;;;;-0.12;100.00;98377.22;15287760;19;20029;-61
2022/12/04 17:11:46;;;;;;;1058.43;90.00;;;;;;;-0.16;100.00;98369.47;15295622;19;20014;-61
2022/12/04 17:17:11;;;;;;;907.90;85.18;;;;;;;-0.13;100.00;98371.06;15292401;19;20017;-59
2022/12/04 17:22:39;;;;;;;1241.95;94.53;;;;;;;-0.13;100.00;98373.72;15295196;19;20487;-59
2022/12/04 17:28:03;;;;;;;1048.85;91.88;;;;;;;-0.10;100.00;98365.59;15280129;19;20017;-59
2022/12/04 17:33:28;;;;;;;1008.67;87.38;;;;;;;-0.09;100.00;98369.94;15290651;19;20014;-58
2022/12/04 17:38:55;;;;;;;1063.22;88.78;;;;;;;-0.09;100.00;98364.66;15289306;19;20025;-57
2022/12/04 17:44:20;;;;;;;943.45;84.55;;;;;;;-0.08;100.00;98374.28;15292652;19;20038;-58
2022/12/04 17:49:44;;;;;;;881.92;85.18;;;;;;;-0.05;100.00;98382.03;15274560;19;20014;-58
2022/12/04 17:55:11;;;;;;;827.25;80.47;;;;;;;-0.07;100.00;98369.84;15280185;19;20101;-59
2022/12/04 18:00:36;;;;;;;1343.13;91.28;;;;;;;-0.08;100.00;98376.94;15281070;19;20032;-59
2022/12/04 18:06:01;;;;;;;1280.85;97.63;;;;;;;-0.10;100.00;98378.84;15286636;19;20017;-59
2022/12/04 18:11:30;;;;;;;884.63;80.97;;;;;;;-0.11;100.00;98363.03;15290831;19;20032;-59
2022/12/04 18:16:57;;;;;;;1387.03;95.63;;;;;;;-0.13;100.00;98360.47;15285760;19;20022;-59
2022/12/04 18:22:22;;;;;;;1034.75;87.40;;;;;;;-0.13;100.00;98364.94;15289265;19;20352;-59
2022/12/04 18:27:49;;;;;;;1317.68;93.65;;;;;;;-0.14;100.00;98369.38;15283230;19;20019;-59
2022/12/04 18:33:14;;;;;;;1310.50;96.15;;;;;;;-0.14;100.00;98353.47;15285053;19;20010;-57
2022/12/04 18:38:39;;;;;;;1449.28;102.95;;;;;;;-0.20;100.00;98364.47;15285508;19;20011;-59
2022/12/04 18:44:06;;;;;;;1284.65;98.05;;;;;;;-0.18;100.00;98370.53;15285019;19;20026;-58
2022/12/04 18:49:31;;;;;;;1470.85;103.22;;;;;;;-0.20;100.00;98375.88;15282016;19;20010;-59
2022/12/04 18:54:55;;;;;;;1458.55;102.85;;;;;;;-0.19;100.00;98374.13;15286219;19;20078;-56
2022/12/04 19:00:23;;;;;;;1372.20;99.65;;;;;;;-0.20;100.00;98375.88;15284639;19;20129;-57
2022/12/04 19:05:56;;;;;;;1500.07;112.30;;;;;;;-0.20;100.00;98383.00;15278550;19;20057;-59
2022/12/04 19:11:21;;;;;;;1478.82;108.63;;;;;;;-0.18;100.00;98397.00;15261831;19;20018;-61
2022/12/04 19:16:48;;;;;;;1414.82;104.45;;;;;;;-0.15;100.00;98388.84;15280097;19;20630;-59
2022/12/04 19:22:13;;;;;;;1166.68;100.05;;;;;;;-0.02;100.00;98389.78;15287790;19;20014;-63
2022/12/04 19:27:37;;;;;;;724.17;86.78;;;;;;;0.09;100.00;98388.25;15279929;19;20018;-61
2022/12/04 19:33:04;;;;;;;959.50;93.70;;;;;;;0.17;100.00;98393.97;15286593;19;20033;-61
2022/12/04 19:38:29;;;;;;;852.38;95.72;;;;;;;0.19;100.00;98389.38;15277866;19;20018;-61
2022/12/04 19:43:57;;;;;;;1092.97;90.07;;;;;;;0.17;100.00;98380.72;15282822;19;20006;-63
2022/12/04 19:49:45;;;;;;;937.80;88.55;;;;;;;0.12;100.00;98388.09;15279874;19;20014;-62
2022/12/04 19:55:10;;;;;;;785.83;85.05;;;;;;;0.13;100.00;98392.44;15282858;19;20018;-61
2022/12/04 20:00:34;;;;;;;1138.35;94.43;;;;;;;0.11;100.00;98381.94;15281540;19;20014;-61
2022/12/04 20:06:12;;;;;;;884.55;84.13;;;;;;;0.09;100.00;98375.88;15280721;19;20021;-62
2022/12/04 20:11:39;;;;;;;999.83;87.50;;;;;;;0.07;100.00;98367.19;15278270;19;20022;-62
2022/12/04 20:17:03;;;;;;;815.90;94.95;;;;;;;0.06;100.00;98386.66;15278351;19;20010;-62
2022/12/04 20:22:33;;;;;;;947.15;90.03;;;;;;;0.08;100.00;98378.63;15285228;19;20015;-62
2022/12/04 20:27:58;;;;;;;1397.50;98.82;;;;;;;0.07;100.00;98383.06;15279577;19;20018;-62
2022/12/04 20:33:30;;;;;;;801.83;90.63;;;;;;;0.06;100.00;98373.44;15286061;19;20018;-62
2022/12/04 20:38:59;;;;;;;979.70;91.95;;;;;;;0.07;100.00;98369.84;15286874;19;20022;-62
2022/12/04 20:44:25;;;;;;;1392.57;100.13;;;;;;;0.06;100.00;98362.00;15299090;19;20082;-63
2022/12/04 20:49:49;;;;;;;1606.20;107.45;;;;;;;0.06;100.00;98356.69;15292837;19;20358;-62
2022/12/04 20:55:16;;;;;;;1041.80;88.25;;;;;;;0.07;100.00;98361.03;15293300;19;20011;-59
2022/12/04 21:00:41;;;;;;;1448.55;111.05;;;;;;;0.08;100.00;98365.38;15293653;19;20020;-60
2022/12/04 21:06:13;;;;;;;1440.20;106.75;;;;;;;0.06;100.00;98354.03;15292139;19;20086;-61
2022/12/04 21:11:42;;;;;;;1226.07;102.72;;;;;;;0.08;100.00;98363.59;15292637;19;20014;-62
2022/12/04 21:17:09;;;;;;;1287.18;99.90;;;;;;;0.12;100.00;98366.88;15292337;19;20085;-62
2022/12/04 21:22:34;;;;;;;1163.18;98.68;;;;;;;0.12;100.00;98364.25;15296283;19;20466;-62
2022/12/04 21:28:01;;;;;;;966.70;91.22;;;;;;;0.13;100.00;98366.78;15289785;19;20018;-63
2022/12/04 21:33:27;;;;;;;1255.53;105.85;;;;;;;0.14;100.00;98372.94;15293955;19;20070;-62
2022/12/04 21:38:52;;;;;;;1128.45;91.45;;;;;;;0.18;100.00;98363.84;15280694;19;20097;-61
2022/12/04 21:44:22;;;;;;;856.65;87.55;;;;;;;0.19;100.00;98372.66;15284773;19;20003;-60
2022/12/04 21:49:47;;;;;;;1006.95;92.05;;;;;;;0.20;100.00;98379.66;15284001;19;20014;-62
2022/12/04 21:55:12;;;;;;;1424.18;101.75;;;;;;;0.19;100.00;98370.84;15294362;19;20010;-62
2022/12/04 22:00:39;;;;;;;1491.97;104.90;;;;;;;0.21;100.00;98376.06;15291844;19;20049;-62
2022/12/04 22:06:04;;;;;;;1392.53;103.15;;;;;;;0.20;100.00;98372.53;15289429;19;20014;-62
2022/12/04 22:11:29;;;;;;;931.35;88.57;;;;;;;0.19;100.00;98375.31;15295689;19;20022;-60
2022/12/04 22:16:58;;;;;;;1027.13;93.30;;;;;;;0.18;100.00;98373.59;15285653;19;20459;-61
2022/12/04 22:22:22;;;;;;;1045.47;90.80;;;;;;;0.18;100.00;98376.25;15290454;19;20479;-61
2022/12/04 22:27:47;;;;;;;948.50;92.18;;;;;;;0.19;100.00;98370.84;15285718;19;20022;-61
2022/12/04 22:33:14;;;;;;;1004.20;92.25;;;;;;;0.20;100.00;98377.84;15288377;19;20046;-61
2022/12/04 22:38:39;;;;;;;886.92;88.22;;;;;;;0.22;100.00;98375.13;15286741;19;20035;-62
2022/12/04 22:44:24;;;;;;;1094.47;94.50;;;;;;;0.22;100.00;98370.66;15288305;19;20025;-59
2022/12/04 22:49:51;;;;;;;707.83;88.10;;;;;;;0.25;100.00;98369.59;15279950;19;20022;-61
2022/12/04 22:55:17;;;;;;;1188.30;96.47;;;;;;;0.24;100.00;98368.75;15287394;19;20014;-61
2022/12/04 23:00:42;;;;;;;818.22;86.25;;;;;;;0.27;100.00;98363.28;15283788;19;20021;-61
2022/12/04 23:06:11;;;;;;;1244.38;99.03;;;;;;;0.26;100.00;98356.28;15284303;19;20078;-59
2022/12/04 23:11:37;;;;;;;852.60;87.68;;;;;;;0.26;100.00;98360.72;15288047;19;20359;-61
2022/12/04 23:17:01;;;;;;;1200.88;105.70;;;;;;;0.26;100.00;98356.28;15284048;19;20010;-60
2022/12/04 23:22:29;;;;;;;864.90;88.13;;;;;;;0.26;100.00;98356.28;15283602;19;20021;-59
2022/12/04 23:27:53;;;;;;;1079.80;97.45;;;;;;;0.23;100.00;98361.75;15282497;19;20034;-61
2022/12/04 23:33:18;;;;;;;910.00;90.07;;;;;;;0.24;100.00;98354.66;15286217;19;20393;-61
2022/12/04 23:38:47;;;;;;;747.22;81.88;;;;;;;0.24;100.00;98360.81;15282209;19;20024;-60
2022/12/04 23:44:12;;;;;;;1035.90;91.40;;;;;;;0.25;100.00;98351.91;15284168;19;20018;-60
2022/12/04 23:49:36;;;;;;;678.10;82.57;;;;;;;0.24;100.00;98347.56;15282087;19;20011;-61
2022/12/04 23:55:03;;;;;;;772.88;87.38;;;;;;;0.22;100.00;98354.75;15278989;19;20083;-61
